createdAt,value
2023-07-02T00:00:07.719Z,17.23
2023-07-02T00:02:34.796Z,17.27
2023-07-02T00:05:01.538Z,17.22
2023-07-02T00:07:28.685Z,17.21
2023-07-02T00:09:55.621Z,17.17
2023-07-02T00:12:22.298Z,17.07
2023-07-02T00:14:49.052Z,16.98
2023-07-02T00:17:15.827Z,16.98
2023-07-02T00:19:43.163Z,16.89
2023-07-02T00:22:10.579Z,16.87
2023-07-02T00:24:38.021Z,16.86
2023-07-02T00:27:04.928Z,16.79
2023-07-02T00:29:31.654Z,16.73
2023-07-02T00:31:58.317Z,16.77
2023-07-02T00:34:26.198Z,16.65
2023-07-02T00:36:53.371Z,16.65
2023-07-02T00:39:21.091Z,16.67
2023-07-02T00:41:47.860Z,16.67
2023-07-02T00:44:15.641Z,16.66
2023-07-02T00:46:42.494Z,16.67
2023-07-02T00:49:09.346Z,16.65
2023-07-02T00:51:36.089Z,16.68
2023-07-02T00:54:02.858Z,16.70
2023-07-02T00:56:29.666Z,16.69
2023-07-02T00:58:59.919Z,16.67
2023-07-02T01:01:29.484Z,16.74
2023-07-02T01:04:03.280Z,16.77
2023-07-02T01:06:31.651Z,16.67
2023-07-02T01:08:59.964Z,16.65
2023-07-02T01:11:29.156Z,16.61
2023-07-02T01:14:02.488Z,16.67
2023-07-02T01:16:32.026Z,16.56
2023-07-02T01:18:58.842Z,16.66
2023-07-02T01:21:26.349Z,16.46
2023-07-02T01:23:53.064Z,16.38
2023-07-02T01:26:20.042Z,16.33
2023-07-02T01:28:46.755Z,16.37
2023-07-02T01:31:13.507Z,16.32
2023-07-02T01:33:40.269Z,16.29
2023-07-02T01:36:07.076Z,16.20
2023-07-02T01:38:33.749Z,16.26
2023-07-02T01:41:00.405Z,16.27
2023-07-02T01:43:27.083Z,16.21
2023-07-02T01:45:54.036Z,16.15
2023-07-02T01:48:20.978Z,16.14
2023-07-02T01:50:47.929Z,16.02
2023-07-02T01:53:14.823Z,16.04
2023-07-02T01:55:41.560Z,16.04
2023-07-02T01:58:08.301Z,15.94
2023-07-02T02:00:35.062Z,15.85
2023-07-02T02:03:01.872Z,15.76
2023-07-02T02:05:28.696Z,15.73
2023-07-02T02:07:55.986Z,15.67
2023-07-02T02:10:22.692Z,15.82
2023-07-02T02:12:49.396Z,15.74
2023-07-02T02:15:16.261Z,15.69
2023-07-02T02:17:42.937Z,15.68
2023-07-02T02:20:10.100Z,15.68
2023-07-02T02:22:36.828Z,15.66
2023-07-02T02:25:04.649Z,15.69
2023-07-02T02:27:31.789Z,15.68
2023-07-02T02:29:59.801Z,15.71
2023-07-02T02:32:26.603Z,15.78
2023-07-02T02:34:53.429Z,15.76
2023-07-02T02:37:22.710Z,15.67
2023-07-02T02:39:49.372Z,15.65
2023-07-02T02:42:16.015Z,15.60
2023-07-02T02:44:42.679Z,15.52
2023-07-02T02:47:09.517Z,15.55
2023-07-02T02:49:38.712Z,15.49
2023-07-02T02:52:05.492Z,15.59
2023-07-02T02:54:32.171Z,15.56
2023-07-02T02:56:58.872Z,15.47
2023-07-02T02:59:26.812Z,15.43
2023-07-02T03:01:53.628Z,15.44
2023-07-02T03:04:24.989Z,15.33
2023-07-02T03:06:53.905Z,15.36
2023-07-02T03:09:20.896Z,15.41
2023-07-02T03:11:48.610Z,15.33
2023-07-02T03:14:15.999Z,15.35
2023-07-02T03:16:46.381Z,15.31
2023-07-02T03:19:15.961Z,15.37
2023-07-02T03:21:45.986Z,15.42
2023-07-02T03:24:14.379Z,15.41
2023-07-02T03:26:41.921Z,15.45
2023-07-02T03:29:08.751Z,15.51
2023-07-02T03:31:35.538Z,15.45
2023-07-02T03:34:09.112Z,15.48
2023-07-02T03:36:36.253Z,15.50
2023-07-02T03:39:03.331Z,15.42
2023-07-02T03:41:30.046Z,15.45
2023-07-02T03:43:56.767Z,15.42
2023-07-02T03:46:23.510Z,15.40
2023-07-02T03:48:50.208Z,15.45
2023-07-02T03:51:17.174Z,15.44
2023-07-02T03:53:44.004Z,15.44
2023-07-02T03:56:10.752Z,15.44
2023-07-02T03:58:37.445Z,15.49
2023-07-02T04:01:04.142Z,15.47
2023-07-02T04:03:31.009Z,15.60
2023-07-02T04:05:57.813Z,15.53
2023-07-02T04:08:26.066Z,15.58
2023-07-02T04:10:52.764Z,15.54
2023-07-02T04:13:19.592Z,15.55
2023-07-02T04:15:46.288Z,15.56
2023-07-02T04:18:13.019Z,15.60
2023-07-02T04:20:39.828Z,15.59
2023-07-02T04:23:07.267Z,15.57
2023-07-02T04:25:58.567Z,15.58
2023-07-02T04:28:21.503Z,15.61
2023-07-02T04:30:51.180Z,15.61
2023-07-02T04:33:18.768Z,15.58
2023-07-02T04:35:45.758Z,15.58
2023-07-02T04:38:13.600Z,15.60
2023-07-02T04:40:40.483Z,15.65
2023-07-02T04:43:07.383Z,15.68
2023-07-02T04:45:37.560Z,15.72
2023-07-02T04:48:05.442Z,15.68
2023-07-02T04:50:32.324Z,15.86
2023-07-02T04:52:59.093Z,15.92
2023-07-02T04:55:25.846Z,16.05
2023-07-02T04:57:52.639Z,16.09
2023-07-02T05:00:20.065Z,16.24
2023-07-02T05:02:46.867Z,16.18
2023-07-02T05:05:13.652Z,16.18
2023-07-02T05:07:41.902Z,16.20
2023-07-02T05:10:09.065Z,16.28
2023-07-02T05:12:35.849Z,16.33
2023-07-02T05:15:02.607Z,16.38
2023-07-02T05:17:30.520Z,16.59
2023-07-02T05:19:57.562Z,16.74
2023-07-02T05:22:24.819Z,16.90
2023-07-02T05:24:51.759Z,16.97
2023-07-02T05:27:18.579Z,16.92
2023-07-02T05:29:45.573Z,16.99
2023-07-02T05:32:12.602Z,16.99
2023-07-02T05:34:39.407Z,17.07
2023-07-02T05:37:07.035Z,17.11
2023-07-02T05:39:35.442Z,17.26
2023-07-02T05:42:02.211Z,17.26
2023-07-02T05:44:29.045Z,17.13
2023-07-02T05:46:55.890Z,17.02
2023-07-02T05:49:22.840Z,16.93
2023-07-02T05:51:49.896Z,16.79
2023-07-02T05:54:16.657Z,16.77
2023-07-02T05:56:43.480Z,16.69
2023-07-02T05:59:10.314Z,16.66
2023-07-02T06:01:37.921Z,16.63
2023-07-02T06:04:05.012Z,16.61
2023-07-02T06:06:31.995Z,16.56
2023-07-02T06:08:59.019Z,16.64
2023-07-02T06:11:25.881Z,16.67
2023-07-02T06:13:52.637Z,16.67
2023-07-02T06:16:19.638Z,16.72
2023-07-02T06:18:47.606Z,16.67
2023-07-02T06:21:14.406Z,16.77
2023-07-02T06:23:44.949Z,17.27
2023-07-02T06:26:11.846Z,17.73
2023-07-02T06:28:39.854Z,18.20
2023-07-02T06:31:06.768Z,18.48
2023-07-02T06:33:33.606Z,18.69
2023-07-02T06:36:00.447Z,18.98
2023-07-02T06:38:27.288Z,19.22
2023-07-02T06:40:54.106Z,19.37
2023-07-02T06:43:21.050Z,19.50
2023-07-02T06:45:47.914Z,19.81
2023-07-02T06:48:19.062Z,19.83
2023-07-02T06:50:47.180Z,20.00
2023-07-02T06:53:14.543Z,20.10
2023-07-02T06:55:41.260Z,20.10
2023-07-02T06:58:08.437Z,20.14
2023-07-02T07:00:38.020Z,20.22
2023-07-02T07:03:05.585Z,20.43
2023-07-02T07:05:32.983Z,20.46
2023-07-02T07:08:03.066Z,20.36
2023-07-02T07:10:35.214Z,20.15
2023-07-02T07:13:05.804Z,19.95
2023-07-02T07:15:34.889Z,20.07
2023-07-02T07:18:02.262Z,19.96
2023-07-02T07:20:29.321Z,20.02
2023-07-02T07:22:56.230Z,20.05
2023-07-02T07:25:23.079Z,20.08
2023-07-02T07:27:50.033Z,20.31
2023-07-02T07:30:16.802Z,20.34
2023-07-02T07:32:43.521Z,20.37
2023-07-02T07:35:10.259Z,20.29
2023-07-02T07:37:37.405Z,19.97
2023-07-02T07:40:24.185Z,20.27
2023-07-02T07:42:50.998Z,20.38
2023-07-02T07:45:17.825Z,20.29
2023-07-02T07:47:45.180Z,20.35
2023-07-02T07:50:12.262Z,20.66
2023-07-02T07:52:43.042Z,20.80
2023-07-02T07:55:10.367Z,20.61
2023-07-02T07:57:38.183Z,20.22
2023-07-02T08:00:08.201Z,19.97
2023-07-02T08:02:35.241Z,19.68
2023-07-02T08:05:02.522Z,20.10
2023-07-02T08:07:29.244Z,20.27
2023-07-02T08:09:55.948Z,20.35
2023-07-02T08:12:22.670Z,20.35
2023-07-02T08:14:50.393Z,20.44
2023-07-02T08:17:17.093Z,20.34
2023-07-02T08:19:43.892Z,20.45
2023-07-02T08:22:10.887Z,20.49
2023-07-02T08:24:37.708Z,20.71
2023-07-02T08:27:05.163Z,20.79
2023-07-02T08:29:34.364Z,20.87
2023-07-02T08:32:01.322Z,20.85
2023-07-02T08:34:31.212Z,20.74
2023-07-02T08:36:58.191Z,20.96
2023-07-02T08:39:24.848Z,20.91
2023-07-02T08:41:53.142Z,20.77
2023-07-02T08:44:21.827Z,20.84
2023-07-02T08:46:52.035Z,20.82
2023-07-02T08:49:19.850Z,21.02
2023-07-02T08:51:47.744Z,21.11
2023-07-02T08:54:15.506Z,21.27
2023-07-02T08:56:42.281Z,21.40
2023-07-02T08:59:12.693Z,21.64
2023-07-02T09:01:47.321Z,21.50
2023-07-02T09:04:34.968Z,21.33
2023-07-02T09:07:07.140Z,21.64
2023-07-02T09:09:34.372Z,21.46
2023-07-02T09:12:01.772Z,21.76
2023-07-02T09:14:31.336Z,21.57
2023-07-02T09:17:11.048Z,21.20
2023-07-02T09:19:48.867Z,21.17
2023-07-02T09:22:17.587Z,21.00
2023-07-02T09:24:54.238Z,21.04
2023-07-02T09:27:22.012Z,21.23
2023-07-02T09:29:55.289Z,21.46
2023-07-02T09:32:29.445Z,21.42
2023-07-02T09:34:59.348Z,21.33
2023-07-02T09:37:26.291Z,21.17
2023-07-02T09:39:53.633Z,20.98
2023-07-02T09:42:21.292Z,20.73
2023-07-02T09:44:48.388Z,20.39
2023-07-02T09:47:19.336Z,20.10
2023-07-02T09:49:58.003Z,20.18
2023-07-02T09:52:25.225Z,20.22
2023-07-02T09:54:52.024Z,20.44
2023-07-02T09:57:18.937Z,20.74
2023-07-02T09:59:45.872Z,21.21
2023-07-02T10:02:13.791Z,21.42
2023-07-02T10:04:45.775Z,21.54
2023-07-02T10:07:13.117Z,21.50
2023-07-02T10:09:48.057Z,21.42
2023-07-02T10:12:28.095Z,21.27
2023-07-02T10:14:56.819Z,21.16
2023-07-02T10:17:32.340Z,21.01
2023-07-02T10:20:08.725Z,20.76
2023-07-02T10:22:45.103Z,20.65
2023-07-02T10:25:11.981Z,20.52
2023-07-02T10:27:43.161Z,20.47
2023-07-02T10:30:11.403Z,20.23
2023-07-02T10:32:39.758Z,20.34
2023-07-02T10:35:19.616Z,19.96
2023-07-02T10:37:46.609Z,20.02
2023-07-02T10:40:13.801Z,19.98
2023-07-02T10:42:51.456Z,19.84
2023-07-02T10:45:18.684Z,19.83
2023-07-02T10:47:45.913Z,19.91
2023-07-02T10:50:20.646Z,20.15
2023-07-02T10:52:48.166Z,20.17
2023-07-02T10:55:19.879Z,20.13
2023-07-02T10:57:46.912Z,20.18
2023-07-02T11:00:14.154Z,20.32
2023-07-02T11:02:41.781Z,20.69
2023-07-02T11:05:13.768Z,20.90
2023-07-02T11:07:44.371Z,21.44
2023-07-02T11:10:13.036Z,21.93
2023-07-02T11:12:39.875Z,22.41
2023-07-02T11:15:19.677Z,22.67
2023-07-02T11:17:47.133Z,22.66
2023-07-02T11:20:15.398Z,22.71
2023-07-02T11:22:42.427Z,22.84
2023-07-02T11:25:11.300Z,22.86
2023-07-02T11:27:38.547Z,22.56
2023-07-02T11:30:06.429Z,22.82
2023-07-02T11:32:37.798Z,22.74
2023-07-02T11:35:04.823Z,22.73
2023-07-02T11:37:31.628Z,22.60
2023-07-02T11:39:58.351Z,22.51
2023-07-02T11:42:25.090Z,22.85
2023-07-02T11:44:51.916Z,22.69
2023-07-02T11:47:18.649Z,22.85
2023-07-02T11:49:45.435Z,22.71
2023-07-02T11:52:13.530Z,22.64
2023-07-02T11:54:40.679Z,22.68
2023-07-02T11:57:07.899Z,22.79
2023-07-02T11:59:34.681Z,23.01
2023-07-02T12:02:01.597Z,23.25
2023-07-02T12:04:30.062Z,23.02
2023-07-02T12:06:57.084Z,22.46
2023-07-02T12:09:23.822Z,21.84
2023-07-02T12:11:51.001Z,22.04
2023-07-02T12:14:17.693Z,22.39
2023-07-02T12:16:44.452Z,22.64
2023-07-02T12:19:11.296Z,22.68
2023-07-02T12:21:37.988Z,22.84
2023-07-02T12:24:09.699Z,22.98
2023-07-02T12:26:37.203Z,23.01
2023-07-02T12:29:05.130Z,23.21
2023-07-02T12:31:32.242Z,23.15
2023-07-02T12:33:59.143Z,23.06
2023-07-02T12:36:26.075Z,22.99
2023-07-02T12:38:52.913Z,22.55
2023-07-02T12:41:19.586Z,22.63
2023-07-02T12:43:46.390Z,22.74
2023-07-02T12:46:13.229Z,22.40
2023-07-02T12:48:40.401Z,22.73
2023-07-02T12:51:07.513Z,22.97
2023-07-02T12:53:34.751Z,23.34
2023-07-02T12:56:01.945Z,23.51
2023-07-02T12:58:28.926Z,23.63
2023-07-02T13:00:56.372Z,23.64
2023-07-02T13:03:24.722Z,23.41
2023-07-02T13:05:51.883Z,22.81
2023-07-02T13:08:19.169Z,22.79
2023-07-02T13:10:46.383Z,23.12
2023-07-02T13:13:23.395Z,23.22
2023-07-02T13:15:53.705Z,23.45
2023-07-02T13:18:21.355Z,23.55
2023-07-02T13:20:48.289Z,23.26
2023-07-02T13:23:15.200Z,23.34
2023-07-02T13:25:44.806Z,23.47
2023-07-02T13:28:11.947Z,23.74
2023-07-02T13:30:38.942Z,23.94
2023-07-02T13:33:05.703Z,24.04
2023-07-02T13:35:33.288Z,23.55
2023-07-02T13:38:05.458Z,23.19
2023-07-02T13:40:32.309Z,23.22
2023-07-02T13:42:59.187Z,23.24
2023-07-02T13:45:25.953Z,23.28
2023-07-02T13:47:52.917Z,23.59
2023-07-02T13:50:21.331Z,23.50
2023-07-02T13:52:49.319Z,23.22
2023-07-02T13:55:16.749Z,23.49
2023-07-02T13:57:44.539Z,23.42
2023-07-02T14:00:12.400Z,23.51
2023-07-02T14:02:40.175Z,23.36
2023-07-02T14:05:07.606Z,23.48
2023-07-02T14:07:34.456Z,23.71
2023-07-02T14:10:02.039Z,23.57
2023-07-02T14:12:29.628Z,23.28
2023-07-02T14:14:56.985Z,23.41
2023-07-02T14:17:26.933Z,23.39
2023-07-02T14:19:54.973Z,23.39
2023-07-02T14:22:21.987Z,23.03
2023-07-02T14:24:49.653Z,22.96
2023-07-02T14:27:17.603Z,22.64
2023-07-02T14:29:44.981Z,22.38
2023-07-02T14:32:12.251Z,22.27
2023-07-02T14:34:39.497Z,22.17
2023-07-02T14:37:06.858Z,22.12
2023-07-02T14:39:33.574Z,22.05
2023-07-02T14:42:00.316Z,22.11
2023-07-02T14:44:27.271Z,22.30
2023-07-02T14:46:54.038Z,22.40
2023-07-02T14:49:21.604Z,22.36
2023-07-02T14:51:48.777Z,22.31
2023-07-02T14:54:17.515Z,22.25
2023-07-02T14:56:44.597Z,21.95
2023-07-02T14:59:11.533Z,22.01
2023-07-02T15:01:38.260Z,22.13
2023-07-02T15:04:05.311Z,22.20
2023-07-02T15:06:33.661Z,22.37
2023-07-02T15:09:00.747Z,22.34
2023-07-02T15:11:29.273Z,22.26
2023-07-02T15:13:56.264Z,22.15
2023-07-02T15:16:24.386Z,22.11
2023-07-02T15:18:51.112Z,22.09
2023-07-02T15:21:19.428Z,22.07
2023-07-02T15:23:46.232Z,22.09
2023-07-02T15:26:13.122Z,22.28
2023-07-02T15:28:39.957Z,22.43
2023-07-02T15:31:09.572Z,22.57
2023-07-02T15:33:37.189Z,22.65
2023-07-02T15:36:05.026Z,22.61
2023-07-02T15:38:32.163Z,22.45
2023-07-02T15:41:12.230Z,22.28
2023-07-02T15:43:40.696Z,22.08
2023-07-02T15:46:08.148Z,21.95
2023-07-02T15:48:34.921Z,21.69
2023-07-02T15:51:04.167Z,21.77
2023-07-02T15:53:30.901Z,21.67
2023-07-02T15:55:58.647Z,21.69
2023-07-02T15:58:27.625Z,21.82
2023-07-02T16:00:54.998Z,21.74
2023-07-02T16:03:24.571Z,21.67
2023-07-02T16:05:59.817Z,21.63
2023-07-02T16:08:26.975Z,21.77
2023-07-02T16:10:53.749Z,21.88
2023-07-02T16:13:20.624Z,21.79
2023-07-02T16:15:50.022Z,21.55
2023-07-02T16:18:18.657Z,21.21
2023-07-02T16:20:56.014Z,21.21
2023-07-02T16:23:22.914Z,21.33
2023-07-02T16:25:57.071Z,21.59
2023-07-02T16:28:23.918Z,21.52
2023-07-02T16:30:50.628Z,21.42
2023-07-02T16:33:18.485Z,21.28
2023-07-02T16:35:46.412Z,21.25
2023-07-02T16:38:13.755Z,21.24
2023-07-02T16:40:40.555Z,21.29
2023-07-02T16:43:07.906Z,21.44
2023-07-02T16:45:34.772Z,21.54
2023-07-02T16:48:04.539Z,21.45
2023-07-02T16:50:31.236Z,21.63
2023-07-02T16:52:57.848Z,21.75
2023-07-02T16:55:24.497Z,21.83
2023-07-02T16:57:51.124Z,21.88
2023-07-02T17:00:18.221Z,21.87
2023-07-02T17:02:44.951Z,21.82
2023-07-02T17:05:11.664Z,21.61
2023-07-02T17:07:38.308Z,21.53
2023-07-02T17:10:05.284Z,21.36
2023-07-02T17:12:31.932Z,21.30
2023-07-02T17:14:58.652Z,21.18
2023-07-02T17:17:28.649Z,21.03
2023-07-02T17:19:57.210Z,20.96
2023-07-02T17:22:27.568Z,20.87
2023-07-02T17:24:55.274Z,20.85
2023-07-02T17:27:24.781Z,20.76
2023-07-02T17:30:00.271Z,20.74
2023-07-02T17:32:28.858Z,20.73
2023-07-02T17:34:55.928Z,20.70
2023-07-02T17:37:23.199Z,20.54
2023-07-02T17:39:50.365Z,20.66
2023-07-02T17:42:18.777Z,20.68
2023-07-02T17:44:47.206Z,20.70
2023-07-02T17:47:16.917Z,20.70
2023-07-02T17:49:45.486Z,20.66
2023-07-02T17:52:14.848Z,20.66
2023-07-02T17:54:50.745Z,20.64
2023-07-02T17:57:19.053Z,20.62
2023-07-02T17:59:47.399Z,20.51
2023-07-02T18:02:16.210Z,20.46
2023-07-02T18:04:44.780Z,20.36
2023-07-02T18:07:17.965Z,20.28
2023-07-02T18:09:47.177Z,20.31
2023-07-02T18:12:20.040Z,20.20
2023-07-02T18:14:46.923Z,20.16
2023-07-02T18:17:13.693Z,20.05
2023-07-02T18:19:40.522Z,19.97
2023-07-02T18:22:07.580Z,19.95
2023-07-02T18:24:36.505Z,19.78
2023-07-02T18:27:04.613Z,19.73
2023-07-02T18:29:33.424Z,19.61
2023-07-02T18:32:06.385Z,19.62
2023-07-02T18:34:36.482Z,19.59
2023-07-02T18:37:04.715Z,19.54
2023-07-02T18:39:35.517Z,19.48
2023-07-02T18:42:05.447Z,19.39
2023-07-02T18:44:35.734Z,19.30
2023-07-02T18:47:10.398Z,19.19
2023-07-02T18:49:37.812Z,19.12
2023-07-02T18:52:07.433Z,19.11
2023-07-02T18:54:35.905Z,19.04
2023-07-02T18:57:04.722Z,18.92
2023-07-02T18:59:31.840Z,18.94
2023-07-02T19:02:00.087Z,18.96
2023-07-02T19:04:27.852Z,18.86
2023-07-02T19:06:57.510Z,18.87
2023-07-02T19:09:24.868Z,18.81
2023-07-02T19:11:52.357Z,18.71
2023-07-02T19:14:19.023Z,18.63
2023-07-02T19:16:46.088Z,18.49
2023-07-02T19:19:12.926Z,18.56
2023-07-02T19:21:39.589Z,18.47
2023-07-02T19:24:06.528Z,18.36
2023-07-02T19:26:33.301Z,18.34
2023-07-02T19:29:00.121Z,18.16
2023-07-02T19:31:29.007Z,18.16
2023-07-02T19:33:56.510Z,17.98
2023-07-02T19:36:23.246Z,17.76
2023-07-02T19:38:50.223Z,17.70
2023-07-02T19:41:16.921Z,17.57
2023-07-02T19:43:43.671Z,17.58
2023-07-02T19:46:10.410Z,17.45
2023-07-02T19:48:37.152Z,17.29
2023-07-02T19:51:05.661Z,17.22
2023-07-02T19:53:32.819Z,17.11
2023-07-02T19:56:00.432Z,16.94
2023-07-02T19:58:27.128Z,16.91
2023-07-02T20:00:53.861Z,16.85
2023-07-02T20:03:20.996Z,16.72
2023-07-02T20:05:49.131Z,16.67
2023-07-02T20:08:16.241Z,16.70
2023-07-02T20:10:42.921Z,16.59
2023-07-02T20:13:09.605Z,16.52
2023-07-02T20:15:36.344Z,16.49
2023-07-02T20:18:04.390Z,16.63
2023-07-02T20:20:32.110Z,16.57
2023-07-02T20:22:59.233Z,16.55
2023-07-02T20:27:58.695Z,16.42
2023-07-02T20:30:25.369Z,16.43
2023-07-02T20:32:52.291Z,16.49
2023-07-02T20:35:20.462Z,16.35
2023-07-02T20:37:52.066Z,16.36
2023-07-02T20:40:19.131Z,16.36
2023-07-02T20:42:45.816Z,16.28
2023-07-02T20:45:13.977Z,16.25
2023-07-02T20:47:42.103Z,16.13
2023-07-02T20:50:14.408Z,16.09
2023-07-02T20:52:41.882Z,16.11
2023-07-02T20:55:09.076Z,16.01
2023-07-02T20:57:35.836Z,16.01
2023-07-02T21:00:04.665Z,15.91
2023-07-02T21:02:31.412Z,15.88
2023-07-02T21:04:58.355Z,15.84
2023-07-02T21:07:26.442Z,15.80
2023-07-02T21:09:53.132Z,15.74
2023-07-02T21:12:19.913Z,15.74
2023-07-02T21:14:51.001Z,15.65
2023-07-02T21:17:17.831Z,15.62
2023-07-02T21:19:44.672Z,15.56
2023-07-02T21:22:11.410Z,15.51
2023-07-02T21:24:38.184Z,15.52
2023-07-02T21:27:05.326Z,15.54
2023-07-02T21:29:32.464Z,15.51
2023-07-02T21:31:59.264Z,15.42
2023-07-02T21:34:26.653Z,15.39
2023-07-02T21:36:53.400Z,15.35
2023-07-02T21:39:20.091Z,15.21
2023-07-02T21:41:48.578Z,15.21
2023-07-02T21:44:15.477Z,15.14
2023-07-02T21:46:42.299Z,15.09
2023-07-02T21:49:09.202Z,15.01
2023-07-02T21:51:35.899Z,14.96
2023-07-02T21:54:02.673Z,14.95
2023-07-02T21:56:29.369Z,14.86
2023-07-02T21:58:56.041Z,14.81
2023-07-02T22:01:22.740Z,14.78
2023-07-02T22:03:49.459Z,14.76
2023-07-02T22:06:16.185Z,14.66
2023-07-02T22:08:42.932Z,14.52
2023-07-02T22:11:23.175Z,14.48
2023-07-02T22:13:54.399Z,14.40
2023-07-02T22:16:21.233Z,14.37
2023-07-02T22:18:48.102Z,14.28
2023-07-02T22:21:15.035Z,14.33
2023-07-02T22:23:43.908Z,14.19
2023-07-02T22:26:10.783Z,14.23
2023-07-02T22:28:37.443Z,14.09
2023-07-02T22:31:06.515Z,14.06
2023-07-02T22:33:33.534Z,14.08
2023-07-02T22:36:00.204Z,14.11
2023-07-02T22:38:27.285Z,14.07
2023-07-02T22:40:54.035Z,14.08
2023-07-02T22:43:20.701Z,14.08
2023-07-02T22:45:47.759Z,14.06
2023-07-02T22:48:14.446Z,14.16
2023-07-02T22:50:41.148Z,14.20
2023-07-02T22:53:07.777Z,14.24
2023-07-02T22:55:34.426Z,14.21
2023-07-02T22:58:02.418Z,14.28
2023-07-02T23:00:29.357Z,14.25
2023-07-02T23:02:56.130Z,14.27
2023-07-02T23:05:23.940Z,14.29
2023-07-02T23:07:50.931Z,14.26
2023-07-02T23:10:17.925Z,14.31
2023-07-02T23:12:49.654Z,14.34
2023-07-02T23:15:19.094Z,14.37
2023-07-02T23:17:55.115Z,14.38
2023-07-02T23:20:21.996Z,14.42
2023-07-02T23:22:51.101Z,14.47
2023-07-02T23:25:24.872Z,14.46
2023-07-02T23:28:10.718Z,14.48
2023-07-02T23:30:55.164Z,14.46
2023-07-02T23:36:26.744Z,14.48
2023-07-02T23:39:00.932Z,14.48
2023-07-02T23:41:44.641Z,14.47
2023-07-02T23:44:18.893Z,14.47
2023-07-02T23:46:45.613Z,14.47
2023-07-02T23:49:12.512Z,14.49
2023-07-02T23:51:39.229Z,14.47
2023-07-02T23:54:05.896Z,14.54
2023-07-02T23:56:32.649Z,14.40
2023-07-02T23:58:59.318Z,14.35
